sensor_id;sensor_type;location;lat;lon;timestamp;temperature;humidity
18797;DHT22;9526;52.612;13.300;2023-03-11T00:00:58;2.30;99.90
18797;DHT22;9526;52.612;13.300;2023-03-11T00:03:22;2.20;99.90
18797;DHT22;9526;52.612;13.300;2023-03-11T00:05:46;2.20;99.90
18797;DHT22;9526;52.612;13.300;2023-03-11T00:08:14;2.20;99.90
18797;DHT22;9526;52.612;13.300;2023-03-11T00:10:40;2.10;99.90
18797;DHT22;9526;52.612;13.300;2023-03-11T00:13:08;2.10;99.90
18797;DHT22;9526;52.612;13.300;2023-03-11T00:15:33;2.10;99.90
18797;DHT22;9526;52.612;13.300;2023-03-11T00:17:58;2.00;99.90
18797;DHT22;9526;52.612;13.300;2023-03-11T00:20:23;2.00;99.90
18797;DHT22;9526;52.612;13.300;2023-03-11T00:22:48;2.00;99.90
18797;DHT22;9526;52.612;13.300;2023-03-11T00:25:13;2.00;99.90
18797;DHT22;9526;52.612;13.300;2023-03-11T00:27:37;1.90;99.90
18797;DHT22;9526;52.612;13.300;2023-03-11T00:30:01;1.90;99.90
18797;DHT22;9526;52.612;13.300;2023-03-11T00:32:24;1.90;99.90
18797;DHT22;9526;52.612;13.300;2023-03-11T00:34:48;1.90;99.90
18797;DHT22;9526;52.612;13.300;2023-03-11T00:37:12;1.90;99.90
18797;DHT22;9526;52.612;13.300;2023-03-11T00:39:36;1.80;99.90
18797;DHT22;9526;52.612;13.300;2023-03-11T00:42:00;1.80;99.90
18797;DHT22;9526;52.612;13.300;2023-03-11T00:44:24;1.80;99.90
18797;DHT22;9526;52.612;13.300;2023-03-11T00:46:48;1.80;99.90
18797;DHT22;9526;52.612;13.300;2023-03-11T00:49:11;1.70;99.90
18797;DHT22;9526;52.612;13.300;2023-03-11T00:51:35;1.70;99.90
18797;DHT22;9526;52.612;13.300;2023-03-11T00:53:59;1.70;99.90
18797;DHT22;9526;52.612;13.300;2023-03-11T00:56:23;1.70;99.90
18797;DHT22;9526;52.612;13.300;2023-03-11T00:58:49;1.70;99.90
18797;DHT22;9526;52.612;13.300;2023-03-11T01:01:14;1.70;99.90
18797;DHT22;9526;52.612;13.300;2023-03-11T01:03:40;1.60;99.90
18797;DHT22;9526;52.612;13.300;2023-03-11T01:06:05;1.60;99.90
18797;DHT22;9526;52.612;13.300;2023-03-11T01:08:29;1.60;99.90
18797;DHT22;9526;52.612;13.300;2023-03-11T01:10:53;1.60;99.90
18797;DHT22;9526;52.612;13.300;2023-03-11T01:13:17;1.60;99.90
18797;DHT22;9526;52.612;13.300;2023-03-11T01:15:42;1.60;99.90
18797;DHT22;9526;52.612;13.300;2023-03-11T01:18:06;1.50;99.90
18797;DHT22;9526;52.612;13.300;2023-03-11T01:20:30;1.60;99.90
18797;DHT22;9526;52.612;13.300;2023-03-11T01:22:54;1.50;99.90
18797;DHT22;9526;52.612;13.300;2023-03-11T01:25:19;1.50;99.90
18797;DHT22;9526;52.612;13.300;2023-03-11T01:27:44;1.60;99.90
18797;DHT22;9526;52.612;13.300;2023-03-11T01:30:19;1.60;99.90
18797;DHT22;9526;52.612;13.300;2023-03-11T01:32:45;1.60;99.90
18797;DHT22;9526;52.612;13.300;2023-03-11T01:35:10;1.60;99.90
18797;DHT22;9526;52.612;13.300;2023-03-11T01:37:34;1.60;99.90
18797;DHT22;9526;52.612;13.300;2023-03-11T01:39:58;1.60;99.90
18797;DHT22;9526;52.612;13.300;2023-03-11T01:42:22;1.60;99.90
18797;DHT22;9526;52.612;13.300;2023-03-11T01:44:46;1.60;99.90
18797;DHT22;9526;52.612;13.300;2023-03-11T01:47:36;1.60;99.90
18797;DHT22;9526;52.612;13.300;2023-03-11T01:50:08;1.60;99.90
18797;DHT22;9526;52.612;13.300;2023-03-11T01:52:34;1.60;99.90
18797;DHT22;9526;52.612;13.300;2023-03-11T01:54:58;1.50;99.90
18797;DHT22;9526;52.612;13.300;2023-03-11T01:57:22;1.60;99.90
18797;DHT22;9526;52.612;13.300;2023-03-11T01:59:48;1.60;99.90
18797;DHT22;9526;52.612;13.300;2023-03-11T02:02:17;1.60;99.90
18797;DHT22;9526;52.612;13.300;2023-03-11T02:04:44;1.60;99.90
18797;DHT22;9526;52.612;13.300;2023-03-11T02:07:11;1.60;99.90
18797;DHT22;9526;52.612;13.300;2023-03-11T02:09:35;1.60;99.90
18797;DHT22;9526;52.612;13.300;2023-03-11T02:11:59;1.60;99.90
18797;DHT22;9526;52.612;13.300;2023-03-11T02:14:24;1.60;99.90
18797;DHT22;9526;52.612;13.300;2023-03-11T02:16:50;1.60;99.90
18797;DHT22;9526;52.612;13.300;2023-03-11T02:19:20;1.60;99.90
18797;DHT22;9526;52.612;13.300;2023-03-11T02:21:50;1.60;99.90
18797;DHT22;9526;52.612;13.300;2023-03-11T02:24:18;1.60;99.90
18797;DHT22;9526;52.612;13.300;2023-03-11T02:26:53;1.60;99.90
18797;DHT22;9526;52.612;13.300;2023-03-11T02:29:19;1.60;99.90
18797;DHT22;9526;52.612;13.300;2023-03-11T02:31:44;1.60;99.90
18797;DHT22;9526;52.612;13.300;2023-03-11T02:34:15;1.60;99.90
18797;DHT22;9526;52.612;13.300;2023-03-11T02:36:42;1.60;99.90
18797;DHT22;9526;52.612;13.300;2023-03-11T02:39:08;1.60;99.90
18797;DHT22;9526;52.612;13.300;2023-03-11T02:41:35;1.60;99.90
18797;DHT22;9526;52.612;13.300;2023-03-11T02:44:02;1.60;99.90
18797;DHT22;9526;52.612;13.300;2023-03-11T02:46:27;1.60;99.90
18797;DHT22;9526;52.612;13.300;2023-03-11T02:48:52;1.60;99.90
18797;DHT22;9526;52.612;13.300;2023-03-11T02:51:16;1.60;99.90
18797;DHT22;9526;52.612;13.300;2023-03-11T02:53:44;1.60;99.90
18797;DHT22;9526;52.612;13.300;2023-03-11T02:56:09;1.60;99.90
18797;DHT22;9526;52.612;13.300;2023-03-11T02:58:33;1.60;99.90
18797;DHT22;9526;52.612;13.300;2023-03-11T03:00:58;1.60;99.90
18797;DHT22;9526;52.612;13.300;2023-03-11T03:03:22;1.60;99.90
18797;DHT22;9526;52.612;13.300;2023-03-11T03:05:45;1.60;99.90
18797;DHT22;9526;52.612;13.300;2023-03-11T03:08:09;1.60;99.90
18797;DHT22;9526;52.612;13.300;2023-03-11T03:10:33;1.60;99.90
18797;DHT22;9526;52.612;13.300;2023-03-11T03:12:57;1.60;99.90
18797;DHT22;9526;52.612;13.300;2023-03-11T03:15:20;1.60;99.90
18797;DHT22;9526;52.612;13.300;2023-03-11T03:17:46;1.60;99.90
18797;DHT22;9526;52.612;13.300;2023-03-11T03:20:13;1.60;99.90
18797;DHT22;9526;52.612;13.300;2023-03-11T03:22:42;1.70;99.90
18797;DHT22;9526;52.612;13.300;2023-03-11T03:25:09;1.70;99.90
18797;DHT22;9526;52.612;13.300;2023-03-11T03:27:34;1.70;99.90
18797;DHT22;9526;52.612;13.300;2023-03-11T03:29:59;1.70;99.90
18797;DHT22;9526;52.612;13.300;2023-03-11T03:32:23;1.70;99.90
18797;DHT22;9526;52.612;13.300;2023-03-11T03:34:48;1.70;99.90
18797;DHT22;9526;52.612;13.300;2023-03-11T03:37:12;1.60;99.90
18797;DHT22;9526;52.612;13.300;2023-03-11T03:39:35;1.70;99.90
18797;DHT22;9526;52.612;13.300;2023-03-11T03:41:59;1.70;99.90
18797;DHT22;9526;52.612;13.300;2023-03-11T03:44:25;1.70;99.90
18797;DHT22;9526;52.612;13.300;2023-03-11T03:46:49;1.70;99.90
18797;DHT22;9526;52.612;13.300;2023-03-11T03:49:13;1.60;99.90
18797;DHT22;9526;52.612;13.300;2023-03-11T03:51:39;1.60;99.90
18797;DHT22;9526;52.612;13.300;2023-03-11T03:54:07;1.60;99.90
18797;DHT22;9526;52.612;13.300;2023-03-11T03:56:31;1.60;99.90
18797;DHT22;9526;52.612;13.300;2023-03-11T03:58:56;1.60;99.90
18797;DHT22;9526;52.612;13.300;2023-03-11T04:01:24;1.60;99.90
18797;DHT22;9526;52.612;13.300;2023-03-11T04:03:48;1.60;99.90
18797;DHT22;9526;52.612;13.300;2023-03-11T04:06:16;1.70;99.90
18797;DHT22;9526;52.612;13.300;2023-03-11T04:08:46;1.70;99.90
18797;DHT22;9526;52.612;13.300;2023-03-11T04:11:09;1.70;99.90
18797;DHT22;9526;52.612;13.300;2023-03-11T04:13:34;1.70;99.90
18797;DHT22;9526;52.612;13.300;2023-03-11T04:15:58;1.70;99.90
18797;DHT22;9526;52.612;13.300;2023-03-11T04:18:22;1.60;99.90
18797;DHT22;9526;52.612;13.300;2023-03-11T04:20:46;1.60;99.90
18797;DHT22;9526;52.612;13.300;2023-03-11T04:23:09;1.70;99.90
18797;DHT22;9526;52.612;13.300;2023-03-11T04:25:35;1.60;99.90
18797;DHT22;9526;52.612;13.300;2023-03-11T04:27:59;1.70;99.90
18797;DHT22;9526;52.612;13.300;2023-03-11T04:30:23;1.70;99.90
18797;DHT22;9526;52.612;13.300;2023-03-11T04:32:50;1.70;99.90
18797;DHT22;9526;52.612;13.300;2023-03-11T04:35:14;1.70;99.90
18797;DHT22;9526;52.612;13.300;2023-03-11T04:37:38;1.70;99.90
18797;DHT22;9526;52.612;13.300;2023-03-11T04:40:02;1.70;99.90
18797;DHT22;9526;52.612;13.300;2023-03-11T04:42:30;1.70;99.90
18797;DHT22;9526;52.612;13.300;2023-03-11T04:44:54;1.70;99.90
18797;DHT22;9526;52.612;13.300;2023-03-11T04:47:18;1.70;99.90
18797;DHT22;9526;52.612;13.300;2023-03-11T04:49:42;1.70;99.90
18797;DHT22;9526;52.612;13.300;2023-03-11T04:52:06;1.70;99.90
18797;DHT22;9526;52.612;13.300;2023-03-11T04:54:30;1.60;99.90
18797;DHT22;9526;52.612;13.300;2023-03-11T04:56:54;1.60;99.90
18797;DHT22;9526;52.612;13.300;2023-03-11T04:59:19;1.60;99.90
18797;DHT22;9526;52.612;13.300;2023-03-11T05:01:45;1.70;99.90
18797;DHT22;9526;52.612;13.300;2023-03-11T05:04:08;1.70;99.90
18797;DHT22;9526;52.612;13.300;2023-03-11T05:06:33;1.70;99.90
18797;DHT22;9526;52.612;13.300;2023-03-11T05:08:58;1.70;99.90
18797;DHT22;9526;52.612;13.300;2023-03-11T05:11:22;1.70;99.90
18797;DHT22;9526;52.612;13.300;2023-03-11T05:13:46;1.70;99.90
18797;DHT22;9526;52.612;13.300;2023-03-11T05:16:11;1.60;99.90
18797;DHT22;9526;52.612;13.300;2023-03-11T05:18:35;1.60;99.90
18797;DHT22;9526;52.612;13.300;2023-03-11T05:20:59;1.70;99.90
18797;DHT22;9526;52.612;13.300;2023-03-11T05:23:25;1.70;99.90
18797;DHT22;9526;52.612;13.300;2023-03-11T05:25:49;1.70;99.90
18797;DHT22;9526;52.612;13.300;2023-03-11T05:28:13;1.70;99.90
18797;DHT22;9526;52.612;13.300;2023-03-11T05:30:43;1.70;99.90
18797;DHT22;9526;52.612;13.300;2023-03-11T05:33:08;1.70;99.90
18797;DHT22;9526;52.612;13.300;2023-03-11T05:35:32;1.70;99.90
18797;DHT22;9526;52.612;13.300;2023-03-11T05:37:55;1.70;99.90
18797;DHT22;9526;52.612;13.300;2023-03-11T05:40:22;1.70;99.90
18797;DHT22;9526;52.612;13.300;2023-03-11T05:42:46;1.70;99.90
18797;DHT22;9526;52.612;13.300;2023-03-11T05:45:10;1.80;99.90
18797;DHT22;9526;52.612;13.300;2023-03-11T05:47:35;1.70;99.90
18797;DHT22;9526;52.612;13.300;2023-03-11T05:50:01;1.70;99.90
18797;DHT22;9526;52.612;13.300;2023-03-11T05:52:25;1.70;99.90
18797;DHT22;9526;52.612;13.300;2023-03-11T05:54:50;1.70;99.90
18797;DHT22;9526;52.612;13.300;2023-03-11T05:57:18;1.70;99.90
18797;DHT22;9526;52.612;13.300;2023-03-11T05:59:42;1.70;99.90
18797;DHT22;9526;52.612;13.300;2023-03-11T06:02:05;1.80;99.90
18797;DHT22;9526;52.612;13.300;2023-03-11T06:04:29;1.80;99.90
18797;DHT22;9526;52.612;13.300;2023-03-11T06:06:56;1.80;99.90
18797;DHT22;9526;52.612;13.300;2023-03-11T06:09:23;1.90;99.90
18797;DHT22;9526;52.612;13.300;2023-03-11T06:11:48;1.80;99.90
18797;DHT22;9526;52.612;13.300;2023-03-11T06:14:14;1.80;99.90
18797;DHT22;9526;52.612;13.300;2023-03-11T06:16:41;1.80;99.90
18797;DHT22;9526;52.612;13.300;2023-03-11T06:19:05;1.80;99.90
18797;DHT22;9526;52.612;13.300;2023-03-11T06:21:32;1.80;99.90
18797;DHT22;9526;52.612;13.300;2023-03-11T06:23:57;1.80;99.90
18797;DHT22;9526;52.612;13.300;2023-03-11T06:26:23;1.80;99.90
18797;DHT22;9526;52.612;13.300;2023-03-11T06:28:47;1.90;99.90
18797;DHT22;9526;52.612;13.300;2023-03-11T06:31:14;1.90;99.90
18797;DHT22;9526;52.612;13.300;2023-03-11T06:33:39;1.90;99.90
18797;DHT22;9526;52.612;13.300;2023-03-11T06:36:04;1.80;99.90
18797;DHT22;9526;52.612;13.300;2023-03-11T06:38:29;1.80;99.90
18797;DHT22;9526;52.612;13.300;2023-03-11T06:40:57;1.80;99.90
18797;DHT22;9526;52.612;13.300;2023-03-11T06:43:22;1.80;99.90
18797;DHT22;9526;52.612;13.300;2023-03-11T06:45:47;1.80;99.90
18797;DHT22;9526;52.612;13.300;2023-03-11T06:48:10;1.80;99.90
18797;DHT22;9526;52.612;13.300;2023-03-11T06:50:34;1.90;99.90
18797;DHT22;9526;52.612;13.300;2023-03-11T06:52:59;1.80;99.90
18797;DHT22;9526;52.612;13.300;2023-03-11T06:55:24;1.90;99.90
18797;DHT22;9526;52.612;13.300;2023-03-11T06:57:49;1.90;99.90
18797;DHT22;9526;52.612;13.300;2023-03-11T07:00:14;1.90;99.90
18797;DHT22;9526;52.612;13.300;2023-03-11T07:02:44;1.90;99.90
18797;DHT22;9526;52.612;13.300;2023-03-11T07:05:09;1.80;99.90
18797;DHT22;9526;52.612;13.300;2023-03-11T07:07:33;1.90;99.90
18797;DHT22;9526;52.612;13.300;2023-03-11T07:09:57;2.00;99.90
18797;DHT22;9526;52.612;13.300;2023-03-11T07:12:21;2.00;99.90
18797;DHT22;9526;52.612;13.300;2023-03-11T07:14:47;2.10;99.90
18797;DHT22;9526;52.612;13.300;2023-03-11T07:17:11;2.00;99.90
18797;DHT22;9526;52.612;13.300;2023-03-11T07:19:42;2.10;99.90
18797;DHT22;9526;52.612;13.300;2023-03-11T07:22:06;2.20;99.90
18797;DHT22;9526;52.612;13.300;2023-03-11T07:24:29;2.20;99.90
18797;DHT22;9526;52.612;13.300;2023-03-11T07:26:53;2.20;99.90
18797;DHT22;9526;52.612;13.300;2023-03-11T07:29:17;2.20;99.90
18797;DHT22;9526;52.612;13.300;2023-03-11T07:31:42;2.20;99.90
18797;DHT22;9526;52.612;13.300;2023-03-11T07:34:06;2.20;99.90
18797;DHT22;9526;52.612;13.300;2023-03-11T07:36:32;2.20;99.90
18797;DHT22;9526;52.612;13.300;2023-03-11T07:38:58;2.10;99.90
18797;DHT22;9526;52.612;13.300;2023-03-11T07:41:25;2.20;99.90
18797;DHT22;9526;52.612;13.300;2023-03-11T07:43:49;2.40;99.90
18797;DHT22;9526;52.612;13.300;2023-03-11T07:46:16;2.40;99.90
18797;DHT22;9526;52.612;13.300;2023-03-11T07:48:42;2.50;99.90
18797;DHT22;9526;52.612;13.300;2023-03-11T07:51:08;2.70;99.90
18797;DHT22;9526;52.612;13.300;2023-03-11T07:53:33;2.70;99.90
18797;DHT22;9526;52.612;13.300;2023-03-11T07:55:58;2.90;99.90
18797;DHT22;9526;52.612;13.300;2023-03-11T07:58:22;2.90;99.90
18797;DHT22;9526;52.612;13.300;2023-03-11T08:00:46;2.90;99.90
18797;DHT22;9526;52.612;13.300;2023-03-11T08:03:09;2.90;99.90
18797;DHT22;9526;52.612;13.300;2023-03-11T08:05:34;2.90;99.90
18797;DHT22;9526;52.612;13.300;2023-03-11T08:07:58;3.00;99.90
18797;DHT22;9526;52.612;13.300;2023-03-11T08:10:21;3.10;99.90
18797;DHT22;9526;52.612;13.300;2023-03-11T08:12:45;3.10;99.90
18797;DHT22;9526;52.612;13.300;2023-03-11T08:15:09;3.30;99.90
18797;DHT22;9526;52.612;13.300;2023-03-11T08:17:33;3.20;99.90
18797;DHT22;9526;52.612;13.300;2023-03-11T08:19:57;3.30;99.90
18797;DHT22;9526;52.612;13.300;2023-03-11T08:22:22;3.40;99.90
18797;DHT22;9526;52.612;13.300;2023-03-11T08:24:49;3.70;99.90
18797;DHT22;9526;52.612;13.300;2023-03-11T08:27:14;3.80;99.90
18797;DHT22;9526;52.612;13.300;2023-03-11T08:29:37;3.70;99.90
18797;DHT22;9526;52.612;13.300;2023-03-11T08:32:02;3.50;99.90
18797;DHT22;9526;52.612;13.300;2023-03-11T08:34:26;3.80;99.90
18797;DHT22;9526;52.612;13.300;2023-03-11T08:36:50;3.90;99.90
18797;DHT22;9526;52.612;13.300;2023-03-11T08:39:15;3.90;99.90
18797;DHT22;9526;52.612;13.300;2023-03-11T08:41:38;3.80;99.90
18797;DHT22;9526;52.612;13.300;2023-03-11T08:44:02;3.80;99.90
18797;DHT22;9526;52.612;13.300;2023-03-11T08:46:27;4.00;99.90
18797;DHT22;9526;52.612;13.300;2023-03-11T08:48:52;4.40;99.90
18797;DHT22;9526;52.612;13.300;2023-03-11T08:51:16;4.50;99.90
18797;DHT22;9526;52.612;13.300;2023-03-11T08:53:40;4.40;99.90
18797;DHT22;9526;52.612;13.300;2023-03-11T08:56:05;4.60;99.90
18797;DHT22;9526;52.612;13.300;2023-03-11T08:58:30;4.60;99.90
18797;DHT22;9526;52.612;13.300;2023-03-11T09:00:53;4.60;99.90
18797;DHT22;9526;52.612;13.300;2023-03-11T09:03:17;5.00;99.90
18797;DHT22;9526;52.612;13.300;2023-03-11T09:05:40;5.00;99.90
18797;DHT22;9526;52.612;13.300;2023-03-11T09:08:04;5.20;99.90
18797;DHT22;9526;52.612;13.300;2023-03-11T09:10:28;5.20;99.90
18797;DHT22;9526;52.612;13.300;2023-03-11T09:12:53;5.40;99.90
18797;DHT22;9526;52.612;13.300;2023-03-11T09:15:16;5.20;99.90
18797;DHT22;9526;52.612;13.300;2023-03-11T09:17:40;5.00;99.90
18797;DHT22;9526;52.612;13.300;2023-03-11T09:20:05;5.10;99.90
18797;DHT22;9526;52.612;13.300;2023-03-11T09:22:29;5.10;99.90
18797;DHT22;9526;52.612;13.300;2023-03-11T09:24:53;5.00;99.90
18797;DHT22;9526;52.612;13.300;2023-03-11T09:27:16;4.80;99.90
18797;DHT22;9526;52.612;13.300;2023-03-11T09:29:41;5.00;99.90
18797;DHT22;9526;52.612;13.300;2023-03-11T09:32:05;4.90;99.90
18797;DHT22;9526;52.612;13.300;2023-03-11T09:34:29;4.90;99.90
18797;DHT22;9526;52.612;13.300;2023-03-11T09:36:52;4.70;99.90
18797;DHT22;9526;52.612;13.300;2023-03-11T09:39:16;4.70;99.90
18797;DHT22;9526;52.612;13.300;2023-03-11T09:41:45;4.80;99.90
18797;DHT22;9526;52.612;13.300;2023-03-11T09:44:23;4.80;99.90
18797;DHT22;9526;52.612;13.300;2023-03-11T09:50:20;4.80;99.90
18797;DHT22;9526;52.612;13.300;2023-03-11T09:53:21;4.90;99.90
18797;DHT22;9526;52.612;13.300;2023-03-11T09:55:51;5.10;99.90
18797;DHT22;9526;52.612;13.300;2023-03-11T09:58:20;5.00;99.90
18797;DHT22;9526;52.612;13.300;2023-03-11T10:00:47;5.10;99.90
18797;DHT22;9526;52.612;13.300;2023-03-11T10:03:30;5.10;99.90
18797;DHT22;9526;52.612;13.300;2023-03-11T10:06:01;5.10;99.90
18797;DHT22;9526;52.612;13.300;2023-03-11T10:08:36;5.10;99.90
18797;DHT22;9526;52.612;13.300;2023-03-11T10:11:09;5.50;99.90
18797;DHT22;9526;52.612;13.300;2023-03-11T10:13:44;5.60;99.90
18797;DHT22;9526;52.612;13.300;2023-03-11T10:16:14;5.80;99.90
18797;DHT22;9526;52.612;13.300;2023-03-11T10:18:51;5.80;99.90
18797;DHT22;9526;52.612;13.300;2023-03-11T10:21:28;6.10;99.90
18797;DHT22;9526;52.612;13.300;2023-03-11T10:24:11;5.90;99.90
18797;DHT22;9526;52.612;13.300;2023-03-11T10:26:42;6.00;99.90
18797;DHT22;9526;52.612;13.300;2023-03-11T10:29:14;6.20;99.90
18797;DHT22;9526;52.612;13.300;2023-03-11T10:31:44;6.20;99.90
18797;DHT22;9526;52.612;13.300;2023-03-11T10:34:16;6.30;99.90
18797;DHT22;9526;52.612;13.300;2023-03-11T10:36:52;6.00;99.90
18797;DHT22;9526;52.612;13.300;2023-03-11T10:39:21;5.80;99.90
18797;DHT22;9526;52.612;13.300;2023-03-11T10:41:51;5.50;99.90
18797;DHT22;9526;52.612;13.300;2023-03-11T10:44:19;5.50;99.90
18797;DHT22;9526;52.612;13.300;2023-03-11T10:46:46;5.20;99.90
18797;DHT22;9526;52.612;13.300;2023-03-11T10:49:13;5.10;99.90
18797;DHT22;9526;52.612;13.300;2023-03-11T10:51:39;5.00;99.90
18797;DHT22;9526;52.612;13.300;2023-03-11T10:54:03;4.90;99.90
18797;DHT22;9526;52.612;13.300;2023-03-11T10:56:30;4.90;99.90
18797;DHT22;9526;52.612;13.300;2023-03-11T10:58:54;4.80;99.90
18797;DHT22;9526;52.612;13.300;2023-03-11T11:01:18;4.80;99.90
18797;DHT22;9526;52.612;13.300;2023-03-11T11:03:43;4.50;99.90
18797;DHT22;9526;52.612;13.300;2023-03-11T11:06:18;4.30;99.90
18797;DHT22;9526;52.612;13.300;2023-03-11T11:08:45;4.60;99.90
18797;DHT22;9526;52.612;13.300;2023-03-11T11:11:19;4.90;99.90
18797;DHT22;9526;52.612;13.300;2023-03-11T11:13:54;4.90;99.90
18797;DHT22;9526;52.612;13.300;2023-03-11T11:16:19;4.90;99.90
18797;DHT22;9526;52.612;13.300;2023-03-11T11:18:44;5.00;99.90
18797;DHT22;9526;52.612;13.300;2023-03-11T11:21:14;5.10;99.90
18797;DHT22;9526;52.612;13.300;2023-03-11T11:23:41;5.00;99.90
18797;DHT22;9526;52.612;13.300;2023-03-11T11:26:13;5.10;99.90
18797;DHT22;9526;52.612;13.300;2023-03-11T11:28:39;5.00;99.90
18797;DHT22;9526;52.612;13.300;2023-03-11T11:31:04;5.00;99.90
18797;DHT22;9526;52.612;13.300;2023-03-11T11:33:29;5.10;99.90
18797;DHT22;9526;52.612;13.300;2023-03-11T11:35:56;5.20;99.90
18797;DHT22;9526;52.612;13.300;2023-03-11T11:38:24;5.20;99.90
18797;DHT22;9526;52.612;13.300;2023-03-11T11:40:50;5.00;99.90
18797;DHT22;9526;52.612;13.300;2023-03-11T11:43:17;5.20;99.90
18797;DHT22;9526;52.612;13.300;2023-03-11T11:45:44;5.10;99.90
18797;DHT22;9526;52.612;13.300;2023-03-11T11:48:15;5.00;99.90
18797;DHT22;9526;52.612;13.300;2023-03-11T11:50:44;5.10;99.90
18797;DHT22;9526;52.612;13.300;2023-03-11T11:53:22;5.00;99.90
18797;DHT22;9526;52.612;13.300;2023-03-11T11:55:51;4.90;99.90
18797;DHT22;9526;52.612;13.300;2023-03-11T11:58:15;4.90;99.90
18797;DHT22;9526;52.612;13.300;2023-03-11T12:00:49;5.20;99.90
18797;DHT22;9526;52.612;13.300;2023-03-11T12:06:19;4.90;99.90
18797;DHT22;9526;52.612;13.300;2023-03-11T12:08:53;4.90;99.90
18797;DHT22;9526;52.612;13.300;2023-03-11T12:11:30;4.90;99.90
18797;DHT22;9526;52.612;13.300;2023-03-11T12:14:02;4.90;99.90
18797;DHT22;9526;52.612;13.300;2023-03-11T12:16:34;4.90;99.90
18797;DHT22;9526;52.612;13.300;2023-03-11T12:19:12;4.80;99.90
18797;DHT22;9526;52.612;13.300;2023-03-11T12:21:58;4.70;99.90
18797;DHT22;9526;52.612;13.300;2023-03-11T12:24:57;4.50;99.90
18797;DHT22;9526;52.612;13.300;2023-03-11T12:27:31;4.40;99.90
18797;DHT22;9526;52.612;13.300;2023-03-11T12:30:00;4.40;99.90
18797;DHT22;9526;52.612;13.300;2023-03-11T12:32:29;4.50;99.90
18797;DHT22;9526;52.612;13.300;2023-03-11T12:35:00;4.50;99.90
18797;DHT22;9526;52.612;13.300;2023-03-11T12:37:26;4.50;99.90
18797;DHT22;9526;52.612;13.300;2023-03-11T12:39:51;4.50;99.90
18797;DHT22;9526;52.612;13.300;2023-03-11T12:42:17;4.40;99.90
18797;DHT22;9526;52.612;13.300;2023-03-11T12:44:42;4.30;99.90
18797;DHT22;9526;52.612;13.300;2023-03-11T12:47:24;4.10;99.90
18797;DHT22;9526;52.612;13.300;2023-03-11T12:49:51;4.10;99.90
18797;DHT22;9526;52.612;13.300;2023-03-11T12:52:18;4.00;99.90
18797;DHT22;9526;52.612;13.300;2023-03-11T12:54:45;4.10;99.90
18797;DHT22;9526;52.612;13.300;2023-03-11T12:57:32;4.00;99.90
18797;DHT22;9526;52.612;13.300;2023-03-11T13:00:17;4.00;99.90
18797;DHT22;9526;52.612;13.300;2023-03-11T13:03:23;4.20;99.90
18797;DHT22;9526;52.612;13.300;2023-03-11T13:06:02;4.20;99.90
18797;DHT22;9526;52.612;13.300;2023-03-11T13:08:36;4.10;99.90
18797;DHT22;9526;52.612;13.300;2023-03-11T13:11:32;4.20;99.90
18797;DHT22;9526;52.612;13.300;2023-03-11T13:14:20;4.10;99.90
18797;DHT22;9526;52.612;13.300;2023-03-11T13:16:50;4.10;99.90
18797;DHT22;9526;52.612;13.300;2023-03-11T13:25:39;4.00;99.90
18797;DHT22;9526;52.612;13.300;2023-03-11T13:28:17;3.90;99.90
18797;DHT22;9526;52.612;13.300;2023-03-11T13:30:52;3.90;99.90
18797;DHT22;9526;52.612;13.300;2023-03-11T13:33:27;3.90;99.90
18797;DHT22;9526;52.612;13.300;2023-03-11T13:36:02;3.90;99.90
18797;DHT22;9526;52.612;13.300;2023-03-11T13:38:42;3.90;99.90
18797;DHT22;9526;52.612;13.300;2023-03-11T13:41:18;3.80;99.90
18797;DHT22;9526;52.612;13.300;2023-03-11T13:43:44;3.80;99.90
18797;DHT22;9526;52.612;13.300;2023-03-11T13:46:25;3.90;99.90
18797;DHT22;9526;52.612;13.300;2023-03-11T13:48:55;4.00;99.90
18797;DHT22;9526;52.612;13.300;2023-03-11T13:51:32;4.00;99.90
18797;DHT22;9526;52.612;13.300;2023-03-11T13:54:01;4.00;99.90
18797;DHT22;9526;52.612;13.300;2023-03-11T13:56:29;4.00;99.90
18797;DHT22;9526;52.612;13.300;2023-03-11T13:58:53;4.00;99.90
18797;DHT22;9526;52.612;13.300;2023-03-11T14:01:39;4.00;99.90
18797;DHT22;9526;52.612;13.300;2023-03-11T14:04:09;4.00;99.90
18797;DHT22;9526;52.612;13.300;2023-03-11T14:06:33;3.90;99.90
18797;DHT22;9526;52.612;13.300;2023-03-11T14:08:57;3.90;99.90
18797;DHT22;9526;52.612;13.300;2023-03-11T14:11:24;4.00;99.90
18797;DHT22;9526;52.612;13.300;2023-03-11T14:13:50;4.00;99.90
18797;DHT22;9526;52.612;13.300;2023-03-11T14:16:16;4.00;99.90
18797;DHT22;9526;52.612;13.300;2023-03-11T14:18:44;3.80;99.90
18797;DHT22;9526;52.612;13.300;2023-03-11T14:21:13;3.90;99.90
18797;DHT22;9526;52.612;13.300;2023-03-11T14:23:40;4.10;99.90
18797;DHT22;9526;52.612;13.300;2023-03-11T14:26:07;4.20;99.90
18797;DHT22;9526;52.612;13.300;2023-03-11T14:28:35;4.40;99.90
18797;DHT22;9526;52.612;13.300;2023-03-11T14:31:02;4.40;99.90
18797;DHT22;9526;52.612;13.300;2023-03-11T14:33:26;4.40;99.90
18797;DHT22;9526;52.612;13.300;2023-03-11T14:35:56;4.40;99.90
18797;DHT22;9526;52.612;13.300;2023-03-11T14:38:22;4.40;99.90
18797;DHT22;9526;52.612;13.300;2023-03-11T14:40:49;4.30;99.90
18797;DHT22;9526;52.612;13.300;2023-03-11T14:43:16;4.30;99.90
18797;DHT22;9526;52.612;13.300;2023-03-11T14:45:42;4.20;99.90
18797;DHT22;9526;52.612;13.300;2023-03-11T14:48:11;4.20;99.90
18797;DHT22;9526;52.612;13.300;2023-03-11T14:50:39;4.20;99.90
18797;DHT22;9526;52.612;13.300;2023-03-11T14:53:07;4.10;99.90
18797;DHT22;9526;52.612;13.300;2023-03-11T14:55:38;4.00;99.90
18797;DHT22;9526;52.612;13.300;2023-03-11T14:58:06;3.90;99.90
18797;DHT22;9526;52.612;13.300;2023-03-11T15:00:36;3.90;99.90
18797;DHT22;9526;52.612;13.300;2023-03-11T15:03:09;3.80;99.90
18797;DHT22;9526;52.612;13.300;2023-03-11T15:05:43;3.90;99.90
18797;DHT22;9526;52.612;13.300;2023-03-11T15:08:12;3.80;99.90
18797;DHT22;9526;52.612;13.300;2023-03-11T15:10:39;3.80;99.90
18797;DHT22;9526;52.612;13.300;2023-03-11T15:13:24;3.90;99.90
18797;DHT22;9526;52.612;13.300;2023-03-11T15:15:55;3.80;99.90
18797;DHT22;9526;52.612;13.300;2023-03-11T15:18:22;3.80;99.90
18797;DHT22;9526;52.612;13.300;2023-03-11T15:21:02;3.90;99.90
18797;DHT22;9526;52.612;13.300;2023-03-11T15:23:29;4.00;99.90
18797;DHT22;9526;52.612;13.300;2023-03-11T15:25:53;4.20;99.90
18797;DHT22;9526;52.612;13.300;2023-03-11T15:28:21;4.10;99.90
18797;DHT22;9526;52.612;13.300;2023-03-11T15:30:46;4.10;99.90
18797;DHT22;9526;52.612;13.300;2023-03-11T15:33:20;4.00;99.90
18797;DHT22;9526;52.612;13.300;2023-03-11T15:35:46;4.00;99.90
18797;DHT22;9526;52.612;13.300;2023-03-11T15:38:12;3.90;99.90
18797;DHT22;9526;52.612;13.300;2023-03-11T15:40:52;4.00;99.90
18797;DHT22;9526;52.612;13.300;2023-03-11T15:43:22;3.90;99.90
18797;DHT22;9526;52.612;13.300;2023-03-11T15:45:49;3.90;99.90
18797;DHT22;9526;52.612;13.300;2023-03-11T15:48:14;3.80;99.90
18797;DHT22;9526;52.612;13.300;2023-03-11T15:50:46;3.70;99.90
18797;DHT22;9526;52.612;13.300;2023-03-11T15:53:15;3.60;99.90
18797;DHT22;9526;52.612;13.300;2023-03-11T15:55:39;3.60;99.90
18797;DHT22;9526;52.612;13.300;2023-03-11T15:58:06;3.60;99.90